TimeCST,TemperatureF,Dew PointF,Humidity,Sea Level PressureIn,VisibilityMPH,Wind Direction,Wind SpeedMPH,Gust SpeedMPH,PrecipitationIn,Events,Conditions,WindDirDegrees,DateUTC
12:00 AM,70,69,97,29.75,5,ENE,3.5,,,,Mist,70,2013-09-25 06:00:00
12:00 AM,69.8,69.8,100,29.94,5.0,ENE,3.5,-,N/A,Fog,Fog,70,2013-09-25 06:00:00
1:00 AM,71.6,68.0,88,29.92,6.2,NNE,4.6,-,N/A,,Mostly Cloudy,30,2013-09-25 07:00:00
2:00 AM,69.8,66.2,88,29.91,6.2,ENE,3.5,-,N/A,,Mostly Cloudy,70,2013-09-25 08:00:00
3:00 AM,70,66,83,29.76,12,NNW,2.3,,,,Mostly Cloudy,330,2013-09-25 09:00:00
3:00 AM,69.8,66.2,88,29.92,-9999.0,NNW,2.3,-,N/A,,Clear,330,2013-09-25 09:00:00
4:00 AM,69.8,66.2,88,29.94,-9999.0,NW,3.5,-,N/A,,Clear,320,2013-09-25 10:00:00
5:00 AM,69.8,66.2,88,29.93,-9999.0,NNE,3.5,-,N/A,,Clear,20,2013-09-25 11:00:00
6:00 AM,69,67,89,29.79,12,NW,2.3,,,Rain,Light Rain,320,2013-09-25 12:00:00
6:00 AM,69.8,66.2,88,29.95,6.2,NW,2.3,-,N/A,Rain,Light Rain,320,2013-09-25 12:00:00
7:00 AM,71.6,68.0,88,29.99,6.2,Calm,Calm,-,N/A,Fog,Patches of Fog,0,2013-09-25 13:00:00
8:00 AM,75.2,68.0,78,30.00,6.2,WSW,3.5,-,N/A,,Mostly Cloudy,240,2013-09-25 14:00:00
9:00 AM,77,68,66,29.81,6,West,5.8,,,,Haze,280,2013-09-25 15:00:00
9:10 AM,82.4,62.6,51,30.02,6.2,East,11.5,-,N/A,,Scattered Clouds,80,2013-09-25 15:10:00
9:22 AM,77.0,66.2,69,30.01,5.6,NNE,4.6,-,N/A,Rain,Rain,30,2013-09-25 15:22:00
10:00 AM,77.0,64.4,65,30.00,6.2,East,6.9,-,N/A,Rain,Light Rain,90,2013-09-25 16:00:00
11:00 AM,77.0,64.4,65,-9999,6.2,ENE,11.5,26.5,N/A,Rain,Light Rain,70,2013-09-25 17:00:00
12:00 PM,74,58,47,29.83,9,East,16.1,,,Rain,Light Rain,90,2013-09-25 18:00:00
12:00 PM,75.2,57.2,53,-9999,6.2,East,16.1,29.9,N/A,Rain,Light Rain,90,2013-09-25 18:00:00
1:00 PM,73.4,57.2,57,29.89,-9999.0,ESE,13.8,25.3,N/A,,Clear,110,2013-09-25 19:00:00
2:00 PM,77.0,59.0,54,29.87,-9999.0,ENE,5.8,-,N/A,,Clear,70,2013-09-25 20:00:00
3:00 PM,80.6,60.8,51,29.87,-9999.0,SW,5.8,-,N/A,,Clear,230,2013-09-25 21:00:00
5:00 PM,77.0,64.4,65,29.93,6.2,South,2.3,-,N/A,,Mostly Cloudy,170,2013-09-25 23:00:00
6:00 PM,73.4,59.0,61,29.95,6.2,ESE,6.9,-,N/A,,Mostly Cloudy,110,2013-09-26 00:00:00
7:00 PM,73.4,60.8,65,29.96,6.2,ESE,4.6,-,N/A,,Mostly Cloudy,110,2013-09-26 01:00:00
8:00 PM,71.6,60.8,69,30.00,-9999.0,NNE,3.5,-,N/A,,Clear,20,2013-09-26 02:00:00
9:00 PM,71,69,91,29.83,5,WNW,8.1,,,Fog,Light Fog,290,2013-09-26 03:00:00
9:00 PM,69.8,69.8,100,30.00,5.0,WNW,8.1,-,N/A,Fog,Fog,290,2013-09-26 03:00:00
10:00 PM,71.6,68.0,88,30.01,6.2,WNW,4.6,-,N/A,Fog,Patches of Fog,290,2013-09-26 04:00:00
11:00 PM,69.8,68.0,94,30.00,6.2,East,3.5,-,N/A,,Mostly Cloudy,80,2013-09-26 05:00:00